Time;durP1;ratioP1;P1;durP2;ratioP2;P2;SDS_P1;SDS_P2;PMS_P1;PMS_P2;Temp;Humidity;BMP_temperature;BMP_pressure;BME280_temperature;BME280_humidity;BME280_pressure;Samples;Min_cycle;Max_cycle;Signal;HPM_P1;HPM_P2
2023/09/05 00:00:10;;;;;;;;;9.33;9.33;;;;;;;;4751561;29;45454;-96
2023/09/05 00:02:39;;;;;;;;;4.33;4.33;;;;;;;;4761322;29;45397;-95
2023/09/05 00:05:07;;;;;;;;;10.00;10.00;;;;;;;;4764406;29;45385;-95
2023/09/05 00:07:33;;;;;;;;;9.00;9.00;;;;;;;;4772026;29;45328;-95
2023/09/05 00:09:58;;;;;;;;;8.00;8.00;;;;;;;;4752475;29;45435;-96
2023/09/05 00:12:24;;;;;;;;;8.00;8.00;;;;;;;;4764422;29;45851;-96
2023/09/05 00:14:49;;;;;;;;;9.00;9.00;;;;;;;;4773512;29;45448;-96
2023/09/05 00:17:14;;;;;;;;;7.33;7.33;;;;;;;;4748605;29;45459;-95
2023/09/05 00:19:39;;;;;;;;;5.33;5.33;;;;;;;;4768663;29;45478;-95
2023/09/05 00:22:04;;;;;;;;;10.33;10.33;;;;;;;;4768180;29;45414;-96
2023/09/05 00:24:33;;;;;;;;;7.67;7.67;;;;;;;;4766480;29;47264;-95
2023/09/05 00:26:59;;;;;;;;;9.67;9.33;;;;;;;;4756408;29;45298;-96
2023/09/05 00:29:26;;;;;;;;;6.67;6.67;;;;;;;;4767614;29;45430;-95
2023/09/05 00:31:52;;;;;;;;;10.00;10.00;;;;;;;;4766373;29;45628;-95
2023/09/05 00:34:17;;;;;;;;;8.00;8.00;;;;;;;;4766471;29;45578;-95
2023/09/05 00:36:42;;;;;;;;;11.33;11.33;;;;;;;;4761740;29;45407;-95
2023/09/05 00:39:08;;;;;;;;;10.33;10.33;;;;;;;;4759552;29;45313;-95
2023/09/05 00:41:34;;;;;;;;;8.00;8.00;;;;;;;;4753972;29;47184;-95
2023/09/05 00:44:00;;;;;;;;;9.33;9.33;;;;;;;;4767626;29;45744;-95
2023/09/05 00:46:26;;;;;;;;;10.00;10.00;;;;;;;;4764697;29;46637;-95
2023/09/05 00:48:52;;;;;;;;;8.67;8.67;;;;;;;;4768413;29;45695;-95
2023/09/05 00:51:18;;;;;;;;;9.00;9.00;;;;;;;;4766216;29;46093;-95
2023/09/05 00:53:43;;;;;;;;;10.67;10.67;;;;;;;;4766511;29;45465;-95
2023/09/05 00:56:08;;;;;;;;;6.00;6.00;;;;;;;;4767678;29;45448;-95
2023/09/05 00:58:33;;;;;;;;;10.33;10.33;;;;;;;;4752373;29;45863;-95
2023/09/05 01:00:59;;;;;;;;;10.00;10.00;;;;;;;;4766914;29;46484;-95
2023/09/05 01:03:24;;;;;;;;;11.33;11.33;;;;;;;;4767158;29;45493;-96
2023/09/05 01:05:54;;;;;;;;;10.67;10.67;;;;;;;;4766853;29;45678;-95
2023/09/05 01:08:37;;;;;;;;;9.67;9.67;;;;;;;;4765556;29;45247;-96
2023/09/05 01:11:08;;;;;;;;;12.33;12.33;;;;;;;;4766233;29;47238;-96
2023/09/05 01:13:36;;;;;;;;;9.33;9.33;;;;;;;;4766708;29;45667;-95
2023/09/05 01:16:01;;;;;;;;;9.67;9.67;;;;;;;;4766391;29;45332;-95
2023/09/05 01:18:28;;;;;;;;;13.67;13.67;;;;;;;;4769175;29;46095;-95
2023/09/05 01:20:59;;;;;;;;;16.00;16.00;;;;;;;;4771624;29;45615;-96
2023/09/05 01:23:28;;;;;;;;;10.33;10.33;;;;;;;;4764161;29;46541;-95
2023/09/05 01:25:53;;;;;;;;;11.00;11.00;;;;;;;;4770287;29;45448;-96
2023/09/05 01:28:23;;;;;;;;;13.00;13.00;;;;;;;;4765196;29;45466;-95
2023/09/05 01:30:48;;;;;;;;;12.33;12.33;;;;;;;;4772587;29;46510;-95
2023/09/05 01:33:14;;;;;;;;;10.00;10.00;;;;;;;;4769783;29;45230;-95
2023/09/05 01:35:39;;;;;;;;;10.67;10.67;;;;;;;;4761566;29;45217;-95
2023/09/05 01:38:04;;;;;;;;;10.33;9.00;;;;;;;;4770950;29;45244;-96
2023/09/05 01:40:32;;;;;;;;;10.33;10.33;;;;;;;;4758534;29;48309;-95
2023/09/05 01:42:57;;;;;;;;;11.33;11.33;;;;;;;;4771729;29;45479;-95
2023/09/05 01:45:22;;;;;;;;;9.00;9.00;;;;;;;;4767829;29;45318;-96
2023/09/05 01:47:48;;;;;;;;;11.67;11.67;;;;;;;;4764724;29;45487;-95
2023/09/05 01:50:13;;;;;;;;;9.00;9.00;;;;;;;;4769377;29;45398;-96
2023/09/05 01:52:38;;;;;;;;;10.00;10.00;;;;;;;;4771809;29;45456;-96
2023/09/05 01:55:03;;;;;;;;;10.67;10.67;;;;;;;;4772825;29;45523;-96
2023/09/05 01:57:29;;;;;;;;;8.67;8.67;;;;;;;;4758337;29;45537;-95
2023/09/05 01:59:54;;;;;;;;;9.67;9.67;;;;;;;;4765305;29;45422;-94
2023/09/05 02:02:22;;;;;;;;;10.33;10.33;;;;;;;;4757746;29;45305;-95
2023/09/05 02:04:47;;;;;;;;;11.67;11.67;;;;;;;;4764155;29;45247;-96
2023/09/05 02:07:12;;;;;;;;;13.00;13.00;;;;;;;;4764143;29;45226;-95
2023/09/05 02:09:37;;;;;;;;;7.33;7.33;;;;;;;;4775097;29;45326;-95
2023/09/05 02:12:03;;;;;;;;;10.67;10.67;;;;;;;;4774400;29;45282;-95
2023/09/05 02:14:28;;;;;;;;;12.33;12.33;;;;;;;;4774886;29;46007;-95
2023/09/05 02:16:53;;;;;;;;;10.67;10.67;;;;;;;;4770442;29;45223;-95
2023/09/05 02:19:19;;;;;;;;;13.67;13.67;;;;;;;;4767628;29;46275;-95
2023/09/05 02:21:44;;;;;;;;;15.33;15.33;;;;;;;;4774205;29;45222;-95
2023/09/05 02:24:10;;;;;;;;;9.67;9.67;;;;;;;;4752465;29;45434;-95
2023/09/05 02:26:37;;;;;;;;;7.67;7.67;;;;;;;;4751646;29;45655;-95
2023/09/05 02:29:02;;;;;;;;;12.67;12.67;;;;;;;;4761268;29;46228;-95
2023/09/05 02:31:27;;;;;;;;;15.00;14.00;;;;;;;;4750318;29;46296;-95
2023/09/05 02:33:52;;;;;;;;;9.33;9.33;;;;;;;;4767081;29;45500;-96
2023/09/05 02:36:18;;;;;;;;;10.33;10.33;;;;;;;;4775284;29;45341;-95
2023/09/05 02:38:44;;;;;;;;;10.67;10.67;;;;;;;;4758393;29;46920;-95
2023/09/05 02:41:10;;;;;;;;;9.00;9.00;;;;;;;;4772624;29;45370;-95
2023/09/05 02:43:35;;;;;;;;;10.33;10.33;;;;;;;;4757873;29;45279;-95
2023/09/05 02:46:00;;;;;;;;;8.00;8.00;;;;;;;;4767293;29;45699;-95
2023/09/05 02:48:26;;;;;;;;;10.00;10.00;;;;;;;;4765451;29;46408;-95
2023/09/05 02:50:59;;;;;;;;;10.33;10.33;;;;;;;;4772153;29;45337;-95
2023/09/05 02:53:25;;;;;;;;;10.00;10.00;;;;;;;;4767047;29;45350;-95
2023/09/05 02:55:50;;;;;;;;;9.33;9.33;;;;;;;;4757503;29;45539;-95
2023/09/05 02:58:15;;;;;;;;;8.67;8.67;;;;;;;;4757223;29;46388;-95
2023/09/05 03:00:40;;;;;;;;;9.67;9.67;;;;;;;;4757405;29;45227;-95
2023/09/05 03:03:06;;;;;;;;;10.67;10.67;;;;;;;;4757614;29;45476;-95
2023/09/05 03:05:31;;;;;;;;;5.33;5.33;;;;;;;;4759548;29;45292;-94
2023/09/05 03:07:56;;;;;;;;;5.00;5.00;;;;;;;;4775136;29;45419;-95
2023/09/05 03:10:21;;;;;;;;;9.67;9.67;;;;;;;;4772571;29;45527;-95
2023/09/05 03:12:47;;;;;;;;;10.67;10.67;;;;;;;;4757301;29;45219;-95
2023/09/05 03:15:18;;;;;;;;;10.33;10.33;;;;;;;;4759609;29;45234;-96
2023/09/05 03:17:43;;;;;;;;;10.67;10.67;;;;;;;;4775307;29;45591;-94
2023/09/05 03:20:10;;;;;;;;;11.67;11.67;;;;;;;;4775153;29;45432;-95
2023/09/05 03:22:35;;;;;;;;;7.33;7.33;;;;;;;;4775239;29;45433;-95
2023/09/05 03:25:00;;;;;;;;;10.67;10.67;;;;;;;;4773656;29;45456;-95
2023/09/05 03:27:25;;;;;;;;;7.00;7.00;;;;;;;;4761286;29;45465;-94
2023/09/05 03:29:51;;;;;;;;;14.33;14.33;;;;;;;;4755290;29;45433;-95
2023/09/05 03:32:16;;;;;;;;;10.00;10.00;;;;;;;;4774450;29;45397;-95
2023/09/05 03:34:48;;;;;;;;;10.67;10.67;;;;;;;;4773360;29;45389;-94
2023/09/05 03:37:13;;;;;;;;;12.67;12.67;;;;;;;;4774596;29;45467;-95
2023/09/05 03:39:38;;;;;;;;;12.33;12.33;;;;;;;;4775517;29;45487;-95
2023/09/05 03:42:04;;;;;;;;;10.33;10.33;;;;;;;;4769303;29;45655;-95
2023/09/05 03:44:29;;;;;;;;;13.33;13.00;;;;;;;;4765322;29;45374;-94
2023/09/05 03:46:54;;;;;;;;;9.33;9.33;;;;;;;;4762184;29;45413;-96
2023/09/05 03:49:19;;;;;;;;;7.67;7.67;;;;;;;;4765486;29;45529;-95
2023/09/05 03:51:45;;;;;;;;;12.67;12.67;;;;;;;;4770479;29;45366;-95
2023/09/05 03:54:12;;;;;;;;;9.00;9.00;;;;;;;;4759897;29;45401;-95
2023/09/05 03:56:37;;;;;;;;;10.67;10.67;;;;;;;;4773329;29;45567;-94
2023/09/05 03:59:03;;;;;;;;;12.00;12.00;;;;;;;;4769733;29;45457;-94
2023/09/05 04:01:28;;;;;;;;;14.00;14.00;;;;;;;;4759952;29;45409;-95
2023/09/05 04:03:53;;;;;;;;;16.00;16.00;;;;;;;;4761563;29;45255;-95
2023/09/05 04:06:18;;;;;;;;;3.33;3.33;;;;;;;;4765901;29;46052;-95
2023/09/05 04:08:44;;;;;;;;;11.33;11.33;;;;;;;;4744598;29;45564;-95
2023/09/05 04:11:09;;;;;;;;;14.67;14.67;;;;;;;;4775349;29;45362;-95
2023/09/05 04:13:35;;;;;;;;;17.33;17.33;;;;;;;;4769599;29;45477;-94
2023/09/05 04:16:06;;;;;;;;;13.00;13.00;;;;;;;;4766429;29;45572;-95
2023/09/05 04:18:32;;;;;;;;;12.33;12.33;;;;;;;;4775127;29;45316;-95
2023/09/05 04:20:58;;;;;;;;;8.67;8.67;;;;;;;;4760381;29;45271;-94
2023/09/05 04:23:23;;;;;;;;;13.00;13.00;;;;;;;;4759977;29;45292;-95
2023/09/05 04:25:54;;;;;;;;;11.67;11.67;;;;;;;;4773529;29;46006;-94
2023/09/05 04:28:20;;;;;;;;;12.67;12.67;;;;;;;;4752766;29;45663;-94
2023/09/05 04:30:45;;;;;;;;;14.33;14.33;;;;;;;;4776838;29;45403;-95
2023/09/05 04:33:11;;;;;;;;;17.67;14.67;;;;;;;;4775866;29;45672;-95
2023/09/05 04:35:36;;;;;;;;;12.33;12.33;;;;;;;;4774926;29;46567;-95
2023/09/05 04:38:02;;;;;;;;;15.00;13.67;;;;;;;;4773098;29;45285;-95
2023/09/05 04:40:27;;;;;;;;;12.67;12.67;;;;;;;;4771561;29;45345;-95
2023/09/05 04:42:52;;;;;;;;;14.33;12.67;;;;;;;;4777007;29;45615;-94
2023/09/05 04:45:17;;;;;;;;;16.67;16.67;;;;;;;;4776294;29;46091;-95
2023/09/05 04:47:43;;;;;;;;;13.00;13.00;;;;;;;;4747179;29;45167;-94
2023/09/05 04:50:08;;;;;;;;;12.33;12.33;;;;;;;;4764582;29;45498;-95
2023/09/05 04:52:34;;;;;;;;;12.33;12.33;;;;;;;;4763283;29;45480;-95
2023/09/05 04:54:59;;;;;;;;;15.67;15.67;;;;;;;;4774655;29;45404;-94
2023/09/05 04:57:25;;;;;;;;;15.33;15.33;;;;;;;;4769491;29;45259;-95
2023/09/05 04:59:56;;;;;;;;;14.33;14.33;;;;;;;;4758916;29;45461;-94
2023/09/05 05:02:23;;;;;;;;;7.00;7.00;;;;;;;;4759211;29;45323;-95
2023/09/05 05:04:48;;;;;;;;;9.33;9.33;;;;;;;;4761511;29;46275;-94
2023/09/05 05:07:13;;;;;;;;;12.67;12.67;;;;;;;;4760996;29;45222;-94
2023/09/05 05:09:39;;;;;;;;;11.33;11.33;;;;;;;;4771259;29;45388;-94
2023/09/05 05:12:05;;;;;;;;;13.00;13.00;;;;;;;;4757792;29;45441;-94
2023/09/05 05:14:30;;;;;;;;;12.67;12.67;;;;;;;;4764956;29;45521;-95
2023/09/05 05:16:55;;;;;;;;;13.67;13.67;;;;;;;;4766508;29;45522;-95
2023/09/05 05:19:21;;;;;;;;;11.33;11.33;;;;;;;;4765656;29;45223;-95
2023/09/05 05:21:47;;;;;;;;;10.00;10.00;;;;;;;;4766002;29;45533;-94
2023/09/05 05:24:12;;;;;;;;;10.00;10.00;;;;;;;;4751681;29;46253;-95
2023/09/05 05:26:37;;;;;;;;;9.33;9.33;;;;;;;;4756059;29;45429;-95
2023/09/05 05:29:02;;;;;;;;;12.33;12.33;;;;;;;;4768912;29;45429;-95
2023/09/05 05:31:28;;;;;;;;;11.00;11.00;;;;;;;;4765602;29;45341;-95
2023/09/05 05:33:54;;;;;;;;;10.33;10.33;;;;;;;;4773664;29;45434;-95
2023/09/05 05:36:19;;;;;;;;;11.00;11.00;;;;;;;;4773778;29;45416;-96
2023/09/05 05:38:44;;;;;;;;;9.33;9.33;;;;;;;;4759982;29;45350;-95
2023/09/05 05:41:09;;;;;;;;;10.00;10.00;;;;;;;;4757985;29;45498;-95
2023/09/05 05:43:35;;;;;;;;;10.67;10.67;;;;;;;;4775426;29;46413;-95
2023/09/05 05:46:00;;;;;;;;;9.00;9.00;;;;;;;;4775624;29;45508;-95
2023/09/05 05:48:26;;;;;;;;;8.67;8.67;;;;;;;;4768762;29;45339;-96
2023/09/05 05:50:51;;;;;;;;;9.67;9.67;;;;;;;;4765888;29;45584;-95
2023/09/05 05:53:17;;;;;;;;;7.67;7.67;;;;;;;;4772699;29;45347;-95
2023/09/05 05:55:42;;;;;;;;;8.33;8.33;;;;;;;;4772343;29;46109;-95
2023/09/05 05:58:07;;;;;;;;;9.67;9.67;;;;;;;;4768779;29;45346;-94
2023/09/05 06:00:33;;;;;;;;;9.00;9.00;;;;;;;;4767312;29;45703;-95
2023/09/05 06:02:58;;;;;;;;;7.67;7.67;;;;;;;;4750222;29;46977;-95
2023/09/05 06:05:23;;;;;;;;;8.33;8.33;;;;;;;;4769952;29;45824;-95
2023/09/05 06:07:49;;;;;;;;;10.33;8.33;;;;;;;;4758300;29;45231;-95
2023/09/05 06:10:15;;;;;;;;;6.00;6.00;;;;;;;;4768577;29;45698;-95
2023/09/05 06:12:40;;;;;;;;;8.67;8.67;;;;;;;;4766894;29;46123;-95
2023/09/05 06:15:05;;;;;;;;;8.33;8.33;;;;;;;;4773530;29;45270;-95
2023/09/05 06:17:31;;;;;;;;;9.33;8.00;;;;;;;;4752852;29;45409;-94
2023/09/05 06:19:56;;;;;;;;;6.33;6.33;;;;;;;;4772132;29;45140;-95
2023/09/05 06:22:21;;;;;;;;;6.33;6.33;;;;;;;;4755718;29;46411;-95
2023/09/05 06:24:46;;;;;;;;;7.67;7.33;;;;;;;;4766833;29;45554;-95
2023/09/05 06:27:12;;;;;;;;;6.33;6.33;;;;;;;;4769819;29;45465;-95
2023/09/05 06:29:37;;;;;;;;;6.00;6.00;;;;;;;;4771301;29;45456;-95
2023/09/05 06:32:02;;;;;;;;;5.67;5.67;;;;;;;;4765312;29;45516;-94
2023/09/05 06:34:28;;;;;;;;;6.00;6.00;;;;;;;;4772988;29;45301;-95
2023/09/05 06:36:53;;;;;;;;;4.00;4.00;;;;;;;;4768206;29;45580;-95
2023/09/05 06:39:18;;;;;;;;;6.33;6.33;;;;;;;;4742901;29;45412;-95
2023/09/05 06:41:43;;;;;;;;;5.33;5.00;;;;;;;;4767630;29;45396;-95
2023/09/05 06:44:09;;;;;;;;;5.67;5.67;;;;;;;;4760685;29;45713;-95
2023/09/05 06:46:35;;;;;;;;;7.33;7.33;;;;;;;;4770028;29;45409;-95
2023/09/05 06:49:00;;;;;;;;;6.00;6.00;;;;;;;;4775487;29;45619;-96
2023/09/05 06:51:26;;;;;;;;;7.00;7.00;;;;;;;;4767166;29;45503;-95
2023/09/05 06:53:51;;;;;;;;;4.67;4.67;;;;;;;;4748398;29;45400;-96
2023/09/05 06:56:17;;;;;;;;;7.00;7.00;;;;;;;;4748418;29;45396;-95
2023/09/05 06:58:43;;;;;;;;;5.00;5.00;;;;;;;;4767353;29;45197;-95
2023/09/05 07:01:08;;;;;;;;;5.67;5.67;;;;;;;;4759674;29;45445;-95
2023/09/05 07:03:33;;;;;;;;;4.33;4.33;;;;;;;;4757452;29;45282;-95
2023/09/05 07:06:01;;;;;;;;;6.00;6.00;;;;;;;;4764655;29;45359;-96
2023/09/05 07:08:26;;;;;;;;;6.00;5.00;;;;;;;;4762614;29;45582;-96
2023/09/05 07:10:51;;;;;;;;;5.67;5.67;;;;;;;;4765030;29;46334;-95
2023/09/05 07:13:16;;;;;;;;;4.00;3.67;;;;;;;;4743991;29;45445;-95
2023/09/05 07:15:43;;;;;;;;;5.00;5.00;;;;;;;;4764251;29;45368;-96
2023/09/05 07:18:08;;;;;;;;;5.00;5.00;;;;;;;;4744498;29;45402;-96
2023/09/05 07:20:34;;;;;;;;;5.00;5.00;;;;;;;;4744007;29;46782;-95
2023/09/05 07:22:59;;;;;;;;;4.00;4.00;;;;;;;;4761468;29;45357;-95
2023/09/05 07:25:24;;;;;;;;;6.00;4.67;;;;;;;;4756621;29;45450;-95
2023/09/05 07:27:49;;;;;;;;;5.00;5.00;;;;;;;;4776631;29;45439;-95
2023/09/05 07:30:16;;;;;;;;;5.00;5.00;;;;;;;;4748665;29;47140;-95
2023/09/05 07:32:41;;;;;;;;;5.00;5.00;;;;;;;;4761200;29;45499;-96
2023/09/05 07:35:07;;;;;;;;;5.00;3.00;;;;;;;;4761978;29;46638;-95
2023/09/05 07:37:32;;;;;;;;;4.00;4.00;;;;;;;;4777545;29;45646;-95
2023/09/05 07:39:57;;;;;;;;;5.33;5.33;;;;;;;;4777017;29;46293;-94
2023/09/05 07:42:22;;;;;;;;;4.00;4.00;;;;;;;;4775321;29;45550;-94
2023/09/05 07:44:48;;;;;;;;;5.00;5.00;;;;;;;;4763631;29;45656;-95
2023/09/05 07:47:13;;;;;;;;;5.00;5.00;;;;;;;;4777088;29;45448;-95
2023/09/05 07:49:42;;;;;;;;;6.00;6.00;;;;;;;;4777189;29;45574;-95
2023/09/05 07:52:07;;;;;;;;;4.33;4.33;;;;;;;;4767871;29;45428;-92
2023/09/05 07:54:33;;;;;;;;;3.00;3.00;;;;;;;;4755340;29;45617;-92
2023/09/05 07:56:59;;;;;;;;;5.33;5.33;;;;;;;;4749102;29;45572;-93
2023/09/05 07:59:24;;;;;;;;;5.00;5.00;;;;;;;;4776130;29;45693;-95
2023/09/05 08:01:49;;;;;;;;;4.67;4.67;;;;;;;;4760630;29;45408;-94
2023/09/05 08:04:37;;;;;;;;;3.67;3.67;;;;;;;;4777787;29;45405;-96
2023/09/05 08:07:05;;;;;;;;;4.00;4.00;;;;;;;;4760447;29;45563;-94
2023/09/05 08:09:44;;;;;;;;;4.33;4.33;;;;;;;;4767653;29;46223;-96
2023/09/05 08:12:10;;;;;;;;;4.00;4.00;;;;;;;;4760458;29;45512;-94
2023/09/05 08:14:38;;;;;;;;;4.00;4.00;;;;;;;;4775551;29;45972;-95
2023/09/05 08:17:03;;;;;;;;;4.00;4.00;;;;;;;;4774901;29;45539;-94
2023/09/05 08:19:31;;;;;;;;;4.00;4.00;;;;;;;;4763137;29;45505;-94
2023/09/05 08:27:34;;;;;;;;;3.00;3.00;;;;;;;;5719614;24;45795;-95
2023/09/05 08:29:59;;;;;;;;;4.33;4.33;;;;;;;;4722020;30;46359;-95
2023/09/05 08:32:25;;;;;;;;;5.00;5.00;;;;;;;;4741606;30;45421;-94
2023/09/05 08:35:13;;;;;;;;;5.00;5.00;;;;;;;;4797869;24;45804;-95
2023/09/05 08:37:38;;;;;;;;;4.67;4.67;;;;;;;;4758224;29;45452;-95
2023/09/05 08:40:04;;;;;;;;;5.00;5.00;;;;;;;;4738506;29;47315;-95
2023/09/05 08:42:30;;;;;;;;;4.00;4.00;;;;;;;;4758907;29;45505;-95
2023/09/05 08:44:58;;;;;;;;;3.00;3.00;;;;;;;;4767302;29;45236;-96
2023/09/05 08:47:24;;;;;;;;;3.67;3.67;;;;;;;;4751718;29;45350;-96
2023/09/05 08:49:50;;;;;;;;;3.00;3.00;;;;;;;;4736888;29;46865;-93
2023/09/05 08:52:18;;;;;;;;;5.33;5.33;;;;;;;;4736175;29;45632;-94
2023/09/05 08:54:43;;;;;;;;;4.00;4.00;;;;;;;;4733240;29;45450;-96
2023/09/05 08:57:09;;;;;;;;;4.33;4.33;;;;;;;;4753730;29;45410;-95
2023/09/05 08:59:34;;;;;;;;;3.00;3.00;;;;;;;;4730297;29;46238;-94
2023/09/05 09:02:00;;;;;;;;;4.00;4.00;;;;;;;;4755145;29;45516;-93
2023/09/05 09:04:26;;;;;;;;;5.00;5.00;;;;;;;;4737471;29;45322;-93
2023/09/05 09:06:57;;;;;;;;;4.33;4.33;;;;;;;;4732783;30;45181;-93
2023/09/05 09:09:34;;;;;;;;;3.00;3.00;;;;;;;;4752624;29;46606;-93
2023/09/05 09:12:00;;;;;;;;;3.67;3.67;;;;;;;;4756982;29;45469;-94
2023/09/05 09:14:27;;;;;;;;;4.00;4.00;;;;;;;;4740271;29;45397;-95
2023/09/05 09:16:53;;;;;;;;;4.00;4.00;;;;;;;;4758997;29;45563;-95
2023/09/05 09:19:18;;;;;;;;;4.67;4.67;;;;;;;;4748435;29;46217;-94
2023/09/05 09:21:45;;;;;;;;;4.00;4.00;;;;;;;;4761413;29;45297;-95
2023/09/05 09:24:11;;;;;;;;;3.33;3.33;;;;;;;;4757274;29;45528;-95
2023/09/05 09:26:41;;;;;;;;;5.00;5.00;;;;;;;;4750142;29;45283;-94
2023/09/05 09:29:09;;;;;;;;;3.00;3.00;;;;;;;;4741605;29;47616;-93
2023/09/05 09:31:37;;;;;;;;;3.33;3.33;;;;;;;;4757968;29;45379;-94
2023/09/05 09:34:02;;;;;;;;;3.00;3.00;;;;;;;;4757432;29;45350;-94
2023/09/05 09:36:37;;;;;;;;;4.67;4.67;;;;;;;;4745000;29;45463;-95
2023/09/05 09:39:09;;;;;;;;;3.33;3.33;;;;;;;;4737751;30;47220;-95
2023/09/05 09:41:40;;;;;;;;;4.67;4.67;;;;;;;;4748599;29;45458;-95
2023/09/05 09:44:05;;;;;;;;;5.00;5.00;;;;;;;;4751210;29;45399;-96
2023/09/05 09:46:31;;;;;;;;;4.67;4.67;;;;;;;;4765062;29;45245;-96
2023/09/05 09:48:57;;;;;;;;;4.33;4.33;;;;;;;;4768216;29;45437;-96
2023/09/05 09:51:24;;;;;;;;;3.00;3.00;;;;;;;;4751379;29;45436;-96
2023/09/05 09:53:50;;;;;;;;;4.00;4.00;;;;;;;;4726440;29;45379;-96
2023/09/05 10:01:55;;;;;;;;;2.33;2.33;;;;;;;;4790464;24;45611;-96
2023/09/05 10:04:33;;;;;;;;;4.67;4.67;;;;;;;;4759029;29;45513;-96
2023/09/05 10:06:59;;;;;;;;;2.67;2.67;;;;;;;;4776069;29;45259;-96
2023/09/05 10:09:30;;;;;;;;;4.33;4.33;;;;;;;;4751196;29;47188;-96
2023/09/05 10:11:56;;;;;;;;;4.33;4.33;;;;;;;;4757588;29;45561;-96
2023/09/05 10:14:21;;;;;;;;;2.33;2.33;;;;;;;;4757025;29;45422;-96
2023/09/05 10:16:50;;;;;;;;;3.33;3.33;;;;;;;;4741274;29;45384;-96
2023/09/05 10:19:17;;;;;;;;;4.00;4.00;;;;;;;;4734738;29;48165;-96
2023/09/05 10:21:46;;;;;;;;;3.00;3.00;;;;;;;;4741520;29;45397;-96
2023/09/05 10:24:11;;;;;;;;;5.00;4.00;;;;;;;;4757901;29;45354;-96
2023/09/05 10:26:38;;;;;;;;;3.00;3.00;;;;;;;;4740758;29;45616;-96
2023/09/05 10:29:23;;;;;;;;;4.67;4.67;;;;;;;;4755826;29;46362;-96
2023/09/05 10:31:48;;;;;;;;;4.00;4.00;;;;;;;;4740233;29;46052;-96
2023/09/05 10:34:13;;;;;;;;;5.00;5.00;;;;;;;;4757035;29;45397;-96
2023/09/05 10:36:42;;;;;;;;;4.00;4.00;;;;;;;;4755914;29;45282;-96
2023/09/05 10:39:27;;;;;;;;;5.33;5.33;;;;;;;;4739660;29;47604;-96
2023/09/05 10:41:53;;;;;;;;;6.00;6.00;;;;;;;;4757339;29;45382;-96
2023/09/05 10:44:21;;;;;;;;;4.00;4.00;;;;;;;;4741098;29;45283;-96
2023/09/05 10:46:53;;;;;;;;;4.00;4.00;;;;;;;;4742978;29;45494;-96
2023/09/05 10:49:19;;;;;;;;;4.33;4.33;;;;;;;;4759844;29;45636;-96
2023/09/05 10:52:03;;;;;;;;;4.33;4.33;;;;;;;;4759200;29;45493;-96
2023/09/05 10:54:30;;;;;;;;;5.00;4.33;;;;;;;;4760053;29;45505;-96
2023/09/05 10:56:55;;;;;;;;;3.00;3.00;;;;;;;;4760347;29;45532;-96
2023/09/05 10:59:26;;;;;;;;;3.00;3.00;;;;;;;;4743403;29;47046;-96
2023/09/05 11:01:56;;;;;;;;;4.67;4.67;;;;;;;;4744407;29;45256;-96
2023/09/05 11:04:26;;;;;;;;;4.00;4.00;;;;;;;;4744579;29;45488;-96
2023/09/05 11:07:01;;;;;;;;;5.00;5.00;;;;;;;;4744688;29;45442;-96
2023/09/05 11:09:28;;;;;;;;;3.00;3.00;;;;;;;;4743338;29;47426;-96
2023/09/05 11:11:56;;;;;;;;;5.67;5.67;;;;;;;;4760066;29;45326;-96
2023/09/05 11:14:31;;;;;;;;;4.67;4.67;;;;;;;;4744395;29;45288;-96
2023/09/05 11:17:01;;;;;;;;;5.00;5.00;;;;;;;;4742618;29;45429;-96
2023/09/05 11:19:39;;;;;;;;;;;;;;;;;;;;;
2023/09/05 11:22:07;;;;;;;;;6.00;5.00;;;;;;;;4759039;29;72015;-96
2023/09/05 11:24:35;;;;;;;;;5.33;5.33;;;;;;;;4744093;29;45434;-96
2023/09/05 11:27:00;;;;;;;;;5.67;5.67;;;;;;;;4744042;29;45531;-96
2023/09/05 11:29:29;;;;;;;;;4.67;4.67;;;;;;;;4758949;29;46468;-96
2023/09/05 11:32:03;;;;;;;;;6.00;6.00;;;;;;;;4744229;29;45519;-96
2023/09/05 11:34:30;;;;;;;;;5.00;5.00;;;;;;;;4760460;29;45213;-96
2023/09/05 11:37:02;;;;;;;;;4.67;4.67;;;;;;;;4763562;29;45328;-96
2023/09/05 11:39:27;;;;;;;;;4.00;4.00;;;;;;;;4743054;29;47947;-96
2023/09/05 11:41:58;;;;;;;;;6.33;6.33;;;;;;;;4759088;29;45257;-96
2023/09/05 11:44:32;;;;;;;;;5.00;5.00;;;;;;;;4760329;29;45481;-96
2023/09/05 11:46:58;;;;;;;;;4.67;4.67;;;;;;;;4743946;29;45469;-96
2023/09/05 11:49:30;;;;;;;;;5.00;5.00;;;;;;;;4739386;30;46278;-96
2023/09/05 11:51:58;;;;;;;;;4.67;4.67;;;;;;;;4743517;29;45436;-96
2023/09/05 11:54:26;;;;;;;;;4.00;4.00;;;;;;;;4742980;29;45434;-96
2023/09/05 11:56:51;;;;;;;;;4.67;4.67;;;;;;;;4756866;29;45504;-96
2023/09/05 11:59:19;;;;;;;;;5.33;5.33;;;;;;;;4736500;29;48428;-96
2023/09/05 12:01:45;;;;;;;;;5.67;5.67;;;;;;;;4759661;29;45426;-96
2023/09/05 12:04:13;;;;;;;;;3.33;3.33;;;;;;;;4759315;29;45428;-96
2023/09/05 12:06:38;;;;;;;;;7.00;7.00;;;;;;;;4760147;29;45432;-96
2023/09/05 12:09:10;;;;;;;;;5.00;5.00;;;;;;;;4743308;29;47004;-96
2023/09/05 12:11:35;;;;;;;;;4.67;4.67;;;;;;;;4759511;29;45362;-96
2023/09/05 12:14:03;;;;;;;;;4.00;4.00;;;;;;;;4743370;29;45457;-96
2023/09/05 12:16:31;;;;;;;;;5.00;5.00;;;;;;;;4759801;29;45551;-96
2023/09/05 12:18:57;;;;;;;;;4.67;4.67;;;;;;;;4744087;29;48101;-96
2023/09/05 12:21:23;;;;;;;;;6.00;6.00;;;;;;;;4742938;29;45706;-96
2023/09/05 12:23:48;;;;;;;;;4.33;4.33;;;;;;;;4759380;29;45268;-96
2023/09/05 12:26:13;;;;;;;;;6.33;6.33;;;;;;;;4743396;29;45453;-96
2023/09/05 12:28:46;;;;;;;;;6.00;6.00;;;;;;;;4758257;29;45661;-96
2023/09/05 12:31:17;;;;;;;;;4.00;4.00;;;;;;;;4756707;29;45224;-96
2023/09/05 12:33:42;;;;;;;;;6.00;6.00;;;;;;;;4759386;29;45311;-96
2023/09/05 12:36:08;;;;;;;;;4.00;4.00;;;;;;;;4746267;29;45331;-96
2023/09/05 12:38:33;;;;;;;;;5.33;5.33;;;;;;;;4741893;29;47979;-96
2023/09/05 12:40:58;;;;;;;;;7.00;7.00;;;;;;;;4758261;29;45772;-96
2023/09/05 12:43:26;;;;;;;;;5.00;5.00;;;;;;;;4758114;29;46465;-96
2023/09/05 12:45:51;;;;;;;;;6.00;6.00;;;;;;;;4770784;24;45357;-96
2023/09/05 12:48:19;;;;;;;;;4.67;4.67;;;;;;;;4785110;24;45350;-96
2023/09/05 12:50:48;;;;;;;;;5.00;5.00;;;;;;;;4774912;29;45590;-96
2023/09/05 12:53:14;;;;;;;;;7.00;7.00;;;;;;;;4774827;29;45510;-96
2023/09/05 12:55:39;;;;;;;;;5.00;5.00;;;;;;;;4780254;29;45618;-96
2023/09/05 12:58:09;;;;;;;;;5.00;5.00;;;;;;;;4777673;29;46064;-96
2023/09/05 13:00:35;;;;;;;;;7.67;7.67;;;;;;;;4777113;29;45381;-96
2023/09/05 13:03:02;;;;;;;;;6.00;6.00;;;;;;;;4774180;29;45441;-96
2023/09/05 13:05:30;;;;;;;;;6.00;6.00;;;;;;;;4776939;29;45452;-95
2023/09/05 13:08:04;;;;;;;;;7.00;7.00;;;;;;;;4769395;29;47038;-96
2023/09/05 13:10:38;;;;;;;;;5.33;5.33;;;;;;;;4776275;29;45453;-96
2023/09/05 13:13:06;;;;;;;;;5.00;5.00;;;;;;;;4775687;29;45378;-96
2023/09/05 13:15:32;;;;;;;;;6.00;6.00;;;;;;;;4760324;29;45457;-96
2023/09/05 13:17:57;;;;;;;;;8.33;8.33;;;;;;;;4764808;29;46598;-96
2023/09/05 13:20:44;;;;;;;;;;;;;;;;;;;;;
2023/09/05 13:23:21;;;;;;;;;6.00;6.00;;;;;;;;4775024;29;68781;-96
2023/09/05 13:26:33;;;;;;;;;2.33;2.33;;;;;;;;4757655;29;45567;-96
2023/09/05 13:28:58;;;;;;;;;5.00;5.00;;;;;;;;4770274;29;45306;-96
2023/09/05 13:31:24;;;;;;;;;5.00;5.00;;;;;;;;4760189;29;45408;-96
2023/09/05 13:33:49;;;;;;;;;6.00;6.00;;;;;;;;4759208;29;45282;-96
2023/09/05 13:36:19;;;;;;;;;4.67;4.67;;;;;;;;4757969;29;45520;-96
2023/09/05 13:38:44;;;;;;;;;6.00;6.00;;;;;;;;4759378;29;46976;-96
2023/09/05 13:41:20;;;;;;;;;6.67;6.67;;;;;;;;4775963;29;45129;-96
2023/09/05 13:43:55;;;;;;;;;5.00;5.00;;;;;;;;4759935;29;45216;-96
2023/09/05 13:46:20;;;;;;;;;5.33;5.33;;;;;;;;4758836;29;45362;-96
2023/09/05 13:49:24;;;;;;;;;;;;;;;;;;;;;
2023/09/05 13:51:53;;;;;;;;;6.00;6.00;;;;;;;;4771170;29;72976;-96
2023/09/05 13:54:25;;;;;;;;;4.00;4.00;;;;;;;;4758781;29;45207;-95
2023/09/05 13:56:59;;;;;;;;;6.67;6.67;;;;;;;;4764373;29;45357;-96
2023/09/05 13:59:24;;;;;;;;;5.00;5.00;;;;;;;;4774964;29;45425;-95
2023/09/05 14:01:49;;;;;;;;;5.00;5.00;;;;;;;;4759687;29;45504;-96
2023/09/05 14:04:15;;;;;;;;;6.00;6.00;;;;;;;;4775597;29;45475;-96
2023/09/05 14:06:41;;;;;;;;;5.67;5.67;;;;;;;;4776448;29;45321;-96
2023/09/05 14:09:09;;;;;;;;;6.00;6.00;;;;;;;;4778957;29;46043;-96
2023/09/05 14:11:34;;;;;;;;;5.00;5.00;;;;;;;;4773359;29;45490;-96
2023/09/05 14:13:59;;;;;;;;;6.00;6.00;;;;;;;;4758635;29;45424;-96
2023/09/05 14:16:24;;;;;;;;;4.67;4.67;;;;;;;;4776047;29;45357;-96
2023/09/05 14:18:50;;;;;;;;;4.00;4.00;;;;;;;;4766532;29;47023;-95
2023/09/05 14:21:20;;;;;;;;;7.00;7.00;;;;;;;;4772550;29;45419;-96
2023/09/05 14:23:45;;;;;;;;;5.33;5.33;;;;;;;;4758441;29;45313;-95
2023/09/05 14:26:11;;;;;;;;;5.00;5.00;;;;;;;;4752916;29;45354;-95
2023/09/05 14:28:36;;;;;;;;;6.00;6.00;;;;;;;;4754039;29;47134;-95
2023/09/05 14:31:04;;;;;;;;;5.00;5.00;;;;;;;;4759059;29;45907;-95
2023/09/05 14:33:31;;;;;;;;;7.00;7.00;;;;;;;;4752813;29;45458;-96
2023/09/05 14:35:58;;;;;;;;;5.00;5.00;;;;;;;;4771585;29;47254;-95
2023/09/05 14:38:26;;;;;;;;;6.33;6.33;;;;;;;;4749881;29;47142;-96
2023/09/05 14:40:53;;;;;;;;;5.00;5.00;;;;;;;;4752711;29;45681;-95
2023/09/05 14:43:19;;;;;;;;;5.67;5.67;;;;;;;;4753823;29;45611;-96
2023/09/05 14:45:45;;;;;;;;;5.00;5.00;;;;;;;;4749775;29;45747;-96
2023/09/05 14:48:18;;;;;;;;;6.00;6.00;;;;;;;;4747548;29;47201;-96